sensor_id;sensor_type;location;lat;lon;timestamp;temperature;humidity
31783;DHT22;18351;47.560;9.708;2023-06-14T00:01:43;16.10;48.50
31783;DHT22;18351;47.560;9.708;2023-06-14T00:04:11;16.00;49.00
31783;DHT22;18351;47.560;9.708;2023-06-14T00:06:38;16.00;49.10
31783;DHT22;18351;47.560;9.708;2023-06-14T00:09:04;15.90;49.50
31783;DHT22;18351;47.560;9.708;2023-06-14T00:11:31;15.80;50.00
31783;DHT22;18351;47.560;9.708;2023-06-14T00:13:57;15.70;50.00
31783;DHT22;18351;47.560;9.708;2023-06-14T00:16:23;15.70;50.00
31783;DHT22;18351;47.560;9.708;2023-06-14T00:18:49;15.70;49.90
31783;DHT22;18351;47.560;9.708;2023-06-14T00:21:17;15.60;50.90
31783;DHT22;18351;47.560;9.708;2023-06-14T00:23:42;15.60;51.20
31783;DHT22;18351;47.560;9.708;2023-06-14T00:26:08;15.60;51.30
31783;DHT22;18351;47.560;9.708;2023-06-14T00:28:34;15.50;50.90
31783;DHT22;18351;47.560;9.708;2023-06-14T00:30:59;15.50;51.00
31783;DHT22;18351;47.560;9.708;2023-06-14T00:33:25;15.50;51.50
31783;DHT22;18351;47.560;9.708;2023-06-14T00:35:51;15.40;52.10
31783;DHT22;18351;47.560;9.708;2023-06-14T00:38:19;15.40;52.50
31783;DHT22;18351;47.560;9.708;2023-06-14T00:40:45;15.30;52.10
31783;DHT22;18351;47.560;9.708;2023-06-14T00:43:10;15.20;53.00
31783;DHT22;18351;47.560;9.708;2023-06-14T00:45:36;15.00;53.30
31783;DHT22;18351;47.560;9.708;2023-06-14T00:48:02;14.90;53.80
31783;DHT22;18351;47.560;9.708;2023-06-14T00:50:30;14.70;54.50
31783;DHT22;18351;47.560;9.708;2023-06-14T00:52:59;14.60;55.20
31783;DHT22;18351;47.560;9.708;2023-06-14T00:55:25;14.40;55.80
31783;DHT22;18351;47.560;9.708;2023-06-14T00:57:50;14.30;56.10
31783;DHT22;18351;47.560;9.708;2023-06-14T01:00:16;14.20;56.60
31783;DHT22;18351;47.560;9.708;2023-06-14T01:02:42;14.10;56.90
31783;DHT22;18351;47.560;9.708;2023-06-14T01:05:08;14.00;57.40
31783;DHT22;18351;47.560;9.708;2023-06-14T01:10:17;13.80;57.90
31783;DHT22;18351;47.560;9.708;2023-06-14T01:15:32;13.70;58.30
31783;DHT22;18351;47.560;9.708;2023-06-14T01:17:58;13.70;58.70
31783;DHT22;18351;47.560;9.708;2023-06-14T01:20:30;13.60;59.30
31783;DHT22;18351;47.560;9.708;2023-06-14T01:22:56;13.50;59.10
31783;DHT22;18351;47.560;9.708;2023-06-14T01:25:22;13.40;59.30
31783;DHT22;18351;47.560;9.708;2023-06-14T01:27:49;13.40;59.00
31783;DHT22;18351;47.560;9.708;2023-06-14T01:30:16;13.40;58.80
31783;DHT22;18351;47.560;9.708;2023-06-14T01:32:43;13.40;59.00
31783;DHT22;18351;47.560;9.708;2023-06-14T01:35:09;13.40;59.40
31783;DHT22;18351;47.560;9.708;2023-06-14T01:37:34;13.40;59.30
31783;DHT22;18351;47.560;9.708;2023-06-14T01:40:04;13.40;59.30
31783;DHT22;18351;47.560;9.708;2023-06-14T01:42:36;13.30;59.30
31783;DHT22;18351;47.560;9.708;2023-06-14T01:45:03;13.30;59.50
31783;DHT22;18351;47.560;9.708;2023-06-14T01:47:30;13.30;59.60
31783;DHT22;18351;47.560;9.708;2023-06-14T01:49:56;13.30;59.80
31783;DHT22;18351;47.560;9.708;2023-06-14T01:52:21;13.20;59.60
31783;DHT22;18351;47.560;9.708;2023-06-14T01:54:50;13.20;60.10
31783;DHT22;18351;47.560;9.708;2023-06-14T01:57:15;13.10;60.20
31783;DHT22;18351;47.560;9.708;2023-06-14T01:59:41;13.10;60.90
31783;DHT22;18351;47.560;9.708;2023-06-14T02:02:07;13.00;61.10
31783;DHT22;18351;47.560;9.708;2023-06-14T02:04:33;13.00;61.50
31783;DHT22;18351;47.560;9.708;2023-06-14T02:06:58;12.90;62.50
31783;DHT22;18351;47.560;9.708;2023-06-14T02:09:24;12.80;63.00
31783;DHT22;18351;47.560;9.708;2023-06-14T02:11:49;12.70;63.20
31783;DHT22;18351;47.560;9.708;2023-06-14T02:14:15;12.70;63.60
31783;DHT22;18351;47.560;9.708;2023-06-14T02:16:42;12.60;63.80
31783;DHT22;18351;47.560;9.708;2023-06-14T02:19:17;12.50;64.00
31783;DHT22;18351;47.560;9.708;2023-06-14T02:21:43;12.50;64.30
31783;DHT22;18351;47.560;9.708;2023-06-14T02:24:09;12.40;64.40
31783;DHT22;18351;47.560;9.708;2023-06-14T02:26:35;12.40;64.50
31783;DHT22;18351;47.560;9.708;2023-06-14T02:29:03;12.30;64.70
31783;DHT22;18351;47.560;9.708;2023-06-14T02:31:29;12.30;65.10
31783;DHT22;18351;47.560;9.708;2023-06-14T02:33:55;12.30;65.20
31783;DHT22;18351;47.560;9.708;2023-06-14T02:36:20;12.20;65.60
31783;DHT22;18351;47.560;9.708;2023-06-14T02:38:46;12.20;65.60
31783;DHT22;18351;47.560;9.708;2023-06-14T02:41:12;12.10;65.80
31783;DHT22;18351;47.560;9.708;2023-06-14T02:43:37;12.10;66.00
31783;DHT22;18351;47.560;9.708;2023-06-14T02:46:03;12.10;66.10
31783;DHT22;18351;47.560;9.708;2023-06-14T02:48:29;12.00;66.30
31783;DHT22;18351;47.560;9.708;2023-06-14T02:50:55;12.00;66.70
31783;DHT22;18351;47.560;9.708;2023-06-14T02:53:21;11.90;66.80
31783;DHT22;18351;47.560;9.708;2023-06-14T02:55:47;11.90;66.90
31783;DHT22;18351;47.560;9.708;2023-06-14T02:58:14;11.90;67.00
31783;DHT22;18351;47.560;9.708;2023-06-14T03:00:39;11.90;67.40
31783;DHT22;18351;47.560;9.708;2023-06-14T03:03:06;11.80;67.30
31783;DHT22;18351;47.560;9.708;2023-06-14T03:05:43;11.90;67.20
31783;DHT22;18351;47.560;9.708;2023-06-14T03:08:11;11.90;66.90
31783;DHT22;18351;47.560;9.708;2023-06-14T03:10:42;11.90;67.40
31783;DHT22;18351;47.560;9.708;2023-06-14T03:13:08;11.90;67.50
31783;DHT22;18351;47.560;9.708;2023-06-14T03:15:36;11.80;67.90
31783;DHT22;18351;47.560;9.708;2023-06-14T03:18:01;11.70;68.30
31783;DHT22;18351;47.560;9.708;2023-06-14T03:20:27;11.60;68.90
31783;DHT22;18351;47.560;9.708;2023-06-14T03:22:55;11.60;69.20
31783;DHT22;18351;47.560;9.708;2023-06-14T03:25:23;11.60;69.10
31783;DHT22;18351;47.560;9.708;2023-06-14T03:27:49;11.60;69.40
31783;DHT22;18351;47.560;9.708;2023-06-14T03:30:14;11.50;69.90
31783;DHT22;18351;47.560;9.708;2023-06-14T03:32:40;11.40;70.00
31783;DHT22;18351;47.560;9.708;2023-06-14T03:35:06;11.30;70.30
31783;DHT22;18351;47.560;9.708;2023-06-14T03:37:31;11.40;70.00
31783;DHT22;18351;47.560;9.708;2023-06-14T03:39:57;11.40;70.10
31783;DHT22;18351;47.560;9.708;2023-06-14T03:42:22;11.40;69.90
31783;DHT22;18351;47.560;9.708;2023-06-14T03:44:48;11.40;69.90
31783;DHT22;18351;47.560;9.708;2023-06-14T03:47:14;11.40;70.00
31783;DHT22;18351;47.560;9.708;2023-06-14T03:49:40;11.40;70.20
31783;DHT22;18351;47.560;9.708;2023-06-14T03:52:06;11.40;70.50
31783;DHT22;18351;47.560;9.708;2023-06-14T03:54:31;11.40;70.10
31783;DHT22;18351;47.560;9.708;2023-06-14T03:56:58;11.50;70.00
31783;DHT22;18351;47.560;9.708;2023-06-14T03:59:24;11.50;70.00
31783;DHT22;18351;47.560;9.708;2023-06-14T04:01:51;11.50;69.90
31783;DHT22;18351;47.560;9.708;2023-06-14T04:04:16;11.60;69.70
31783;DHT22;18351;47.560;9.708;2023-06-14T04:06:42;11.60;69.90
31783;DHT22;18351;47.560;9.708;2023-06-14T04:09:08;11.60;69.70
31783;DHT22;18351;47.560;9.708;2023-06-14T04:11:34;11.70;69.60
31783;DHT22;18351;47.560;9.708;2023-06-14T04:13:59;11.70;69.20
31783;DHT22;18351;47.560;9.708;2023-06-14T04:16:25;11.80;69.20
31783;DHT22;18351;47.560;9.708;2023-06-14T04:18:51;11.80;69.20
31783;DHT22;18351;47.560;9.708;2023-06-14T04:21:18;11.90;69.50
31783;DHT22;18351;47.560;9.708;2023-06-14T04:23:43;11.80;69.80
31783;DHT22;18351;47.560;9.708;2023-06-14T04:26:09;11.90;69.90
31783;DHT22;18351;47.560;9.708;2023-06-14T04:28:36;12.00;69.80
31783;DHT22;18351;47.560;9.708;2023-06-14T04:31:06;12.00;69.90
31783;DHT22;18351;47.560;9.708;2023-06-14T04:33:36;12.10;69.70
31783;DHT22;18351;47.560;9.708;2023-06-14T04:36:09;12.10;69.60
31783;DHT22;18351;47.560;9.708;2023-06-14T04:38:35;12.20;69.80
31783;DHT22;18351;47.560;9.708;2023-06-14T04:41:01;12.20;69.70
31783;DHT22;18351;47.560;9.708;2023-06-14T04:43:27;12.30;70.00
31783;DHT22;18351;47.560;9.708;2023-06-14T04:45:53;12.40;70.20
31783;DHT22;18351;47.560;9.708;2023-06-14T04:48:20;12.50;69.80
31783;DHT22;18351;47.560;9.708;2023-06-14T04:50:46;12.60;69.60
31783;DHT22;18351;47.560;9.708;2023-06-14T04:53:11;12.70;69.40
31783;DHT22;18351;47.560;9.708;2023-06-14T04:55:38;12.80;69.70
31783;DHT22;18351;47.560;9.708;2023-06-14T04:58:03;13.00;69.70
31783;DHT22;18351;47.560;9.708;2023-06-14T05:00:30;13.10;69.60
31783;DHT22;18351;47.560;9.708;2023-06-14T05:02:55;13.20;69.20
31783;DHT22;18351;47.560;9.708;2023-06-14T05:05:22;13.20;69.20
31783;DHT22;18351;47.560;9.708;2023-06-14T05:07:48;13.40;69.50
31783;DHT22;18351;47.560;9.708;2023-06-14T05:10:15;13.50;69.30
31783;DHT22;18351;47.560;9.708;2023-06-14T05:12:40;13.60;69.10
31783;DHT22;18351;47.560;9.708;2023-06-14T05:15:09;13.70;68.40
31783;DHT22;18351;47.560;9.708;2023-06-14T05:17:35;13.80;68.30
31783;DHT22;18351;47.560;9.708;2023-06-14T05:20:01;14.00;68.50
31783;DHT22;18351;47.560;9.708;2023-06-14T05:22:27;14.10;68.20
31783;DHT22;18351;47.560;9.708;2023-06-14T05:24:53;14.10;67.90
31783;DHT22;18351;47.560;9.708;2023-06-14T05:27:18;14.30;68.00
31783;DHT22;18351;47.560;9.708;2023-06-14T05:29:44;14.30;68.50
31783;DHT22;18351;47.560;9.708;2023-06-14T05:32:09;14.50;68.50
31783;DHT22;18351;47.560;9.708;2023-06-14T05:34:35;14.70;67.90
31783;DHT22;18351;47.560;9.708;2023-06-14T05:37:01;14.80;67.10
31783;DHT22;18351;47.560;9.708;2023-06-14T05:39:26;15.00;67.20
31783;DHT22;18351;47.560;9.708;2023-06-14T05:41:52;15.20;66.50
31783;DHT22;18351;47.560;9.708;2023-06-14T05:44:17;15.30;66.10
31783;DHT22;18351;47.560;9.708;2023-06-14T05:46:43;15.30;66.10
31783;DHT22;18351;47.560;9.708;2023-06-14T05:49:09;15.50;65.70
31783;DHT22;18351;47.560;9.708;2023-06-14T05:51:34;16.20;65.40
31783;DHT22;18351;47.560;9.708;2023-06-14T05:54:00;17.30;62.60
31783;DHT22;18351;47.560;9.708;2023-06-14T05:56:26;18.90;59.00
31783;DHT22;18351;47.560;9.708;2023-06-14T05:58:51;20.30;55.80
31783;DHT22;18351;47.560;9.708;2023-06-14T06:01:17;22.10;52.20
31783;DHT22;18351;47.560;9.708;2023-06-14T06:03:43;23.80;48.20
31783;DHT22;18351;47.560;9.708;2023-06-14T06:06:12;25.20;45.90
31783;DHT22;18351;47.560;9.708;2023-06-14T06:08:38;26.40;44.10
31783;DHT22;18351;47.560;9.708;2023-06-14T06:11:03;27.10;43.20
31783;DHT22;18351;47.560;9.708;2023-06-14T06:13:29;27.80;41.80
31783;DHT22;18351;47.560;9.708;2023-06-14T06:15:54;28.30;41.60
31783;DHT22;18351;47.560;9.708;2023-06-14T06:18:21;28.70;40.50
31783;DHT22;18351;47.560;9.708;2023-06-14T06:20:47;29.20;40.40
31783;DHT22;18351;47.560;9.708;2023-06-14T06:23:12;29.40;39.60
31783;DHT22;18351;47.560;9.708;2023-06-14T06:25:38;29.20;40.00
31783;DHT22;18351;47.560;9.708;2023-06-14T06:28:04;29.20;40.30
31783;DHT22;18351;47.560;9.708;2023-06-14T06:30:29;29.30;40.30
31783;DHT22;18351;47.560;9.708;2023-06-14T06:32:55;29.20;40.30
31783;DHT22;18351;47.560;9.708;2023-06-14T06:35:23;29.30;40.30
31783;DHT22;18351;47.560;9.708;2023-06-14T06:37:49;29.30;39.70
31783;DHT22;18351;47.560;9.708;2023-06-14T06:40:14;29.20;40.20
31783;DHT22;18351;47.560;9.708;2023-06-14T06:42:41;28.90;40.60
31783;DHT22;18351;47.560;9.708;2023-06-14T06:45:07;28.00;40.80
31783;DHT22;18351;47.560;9.708;2023-06-14T06:47:32;27.00;42.80
31783;DHT22;18351;47.560;9.708;2023-06-14T06:49:58;26.10;44.40
31783;DHT22;18351;47.560;9.708;2023-06-14T06:52:23;25.30;45.70
31783;DHT22;18351;47.560;9.708;2023-06-14T06:54:49;24.30;46.70
31783;DHT22;18351;47.560;9.708;2023-06-14T06:57:15;23.60;49.50
31783;DHT22;18351;47.560;9.708;2023-06-14T06:59:41;23.00;50.90
31783;DHT22;18351;47.560;9.708;2023-06-14T07:02:06;22.50;52.00
31783;DHT22;18351;47.560;9.708;2023-06-14T07:04:32;22.10;52.70
31783;DHT22;18351;47.560;9.708;2023-06-14T07:06:57;21.80;53.00
31783;DHT22;18351;47.560;9.708;2023-06-14T07:09:23;21.60;53.90
31783;DHT22;18351;47.560;9.708;2023-06-14T07:11:50;21.30;54.30
31783;DHT22;18351;47.560;9.708;2023-06-14T07:14:16;21.10;54.90
31783;DHT22;18351;47.560;9.708;2023-06-14T07:16:41;21.00;55.90
31783;DHT22;18351;47.560;9.708;2023-06-14T07:19:08;20.80;55.80
31783;DHT22;18351;47.560;9.708;2023-06-14T07:21:34;20.70;57.10
31783;DHT22;18351;47.560;9.708;2023-06-14T07:24:03;20.80;57.60
31783;DHT22;18351;47.560;9.708;2023-06-14T07:26:28;20.70;56.70
31783;DHT22;18351;47.560;9.708;2023-06-14T07:28:54;20.70;57.60
31783;DHT22;18351;47.560;9.708;2023-06-14T07:31:19;20.80;58.20
31783;DHT22;18351;47.560;9.708;2023-06-14T07:33:45;20.80;56.40
31783;DHT22;18351;47.560;9.708;2023-06-14T07:36:11;20.80;57.40
31783;DHT22;18351;47.560;9.708;2023-06-14T07:38:36;20.90;57.00
31783;DHT22;18351;47.560;9.708;2023-06-14T07:41:02;20.90;57.70
31783;DHT22;18351;47.560;9.708;2023-06-14T07:43:28;21.10;57.40
31783;DHT22;18351;47.560;9.708;2023-06-14T07:45:53;21.10;57.50
31783;DHT22;18351;47.560;9.708;2023-06-14T07:48:19;21.30;56.80
31783;DHT22;18351;47.560;9.708;2023-06-14T07:50:45;21.40;56.50
31783;DHT22;18351;47.560;9.708;2023-06-14T07:53:10;21.50;55.70
31783;DHT22;18351;47.560;9.708;2023-06-14T07:55:36;21.60;55.80
31783;DHT22;18351;47.560;9.708;2023-06-14T07:58:08;21.60;55.90
31783;DHT22;18351;47.560;9.708;2023-06-14T08:00:34;21.80;55.80
31783;DHT22;18351;47.560;9.708;2023-06-14T08:02:59;21.80;55.20
31783;DHT22;18351;47.560;9.708;2023-06-14T08:05:26;21.80;56.00
31783;DHT22;18351;47.560;9.708;2023-06-14T08:07:52;21.80;55.90
31783;DHT22;18351;47.560;9.708;2023-06-14T08:10:18;21.80;56.20
31783;DHT22;18351;47.560;9.708;2023-06-14T08:12:44;21.90;55.60
31783;DHT22;18351;47.560;9.708;2023-06-14T08:15:10;22.10;55.20
31783;DHT22;18351;47.560;9.708;2023-06-14T08:17:35;22.20;54.70
31783;DHT22;18351;47.560;9.708;2023-06-14T08:20:01;22.30;54.60
31783;DHT22;18351;47.560;9.708;2023-06-14T08:22:29;22.50;54.20
31783;DHT22;18351;47.560;9.708;2023-06-14T08:24:57;22.50;54.00
31783;DHT22;18351;47.560;9.708;2023-06-14T08:27:23;22.60;55.20
31783;DHT22;18351;47.560;9.708;2023-06-14T08:29:49;22.50;55.10
31783;DHT22;18351;47.560;9.708;2023-06-14T08:32:15;22.60;54.90
31783;DHT22;18351;47.560;9.708;2023-06-14T08:34:40;22.60;55.10
31783;DHT22;18351;47.560;9.708;2023-06-14T08:37:06;22.40;55.10
31783;DHT22;18351;47.560;9.708;2023-06-14T08:39:32;22.40;55.20
31783;DHT22;18351;47.560;9.708;2023-06-14T08:41:57;22.50;55.40
31783;DHT22;18351;47.560;9.708;2023-06-14T08:44:23;22.70;55.30
31783;DHT22;18351;47.560;9.708;2023-06-14T08:46:50;22.80;55.60
31783;DHT22;18351;47.560;9.708;2023-06-14T08:49:17;22.80;54.10
31783;DHT22;18351;47.560;9.708;2023-06-14T08:51:43;22.90;56.30
31783;DHT22;18351;47.560;9.708;2023-06-14T08:54:11;22.90;53.60
31783;DHT22;18351;47.560;9.708;2023-06-14T08:56:38;22.90;54.50
31783;DHT22;18351;47.560;9.708;2023-06-14T08:59:07;23.00;55.60
31783;DHT22;18351;47.560;9.708;2023-06-14T09:01:34;23.00;55.10
31783;DHT22;18351;47.560;9.708;2023-06-14T09:04:00;23.10;53.70
31783;DHT22;18351;47.560;9.708;2023-06-14T09:06:26;23.00;54.50
31783;DHT22;18351;47.560;9.708;2023-06-14T09:08:54;23.10;54.30
31783;DHT22;18351;47.560;9.708;2023-06-14T09:11:21;23.10;53.20
31783;DHT22;18351;47.560;9.708;2023-06-14T09:13:48;23.00;53.70
31783;DHT22;18351;47.560;9.708;2023-06-14T09:16:14;22.80;55.30
31783;DHT22;18351;47.560;9.708;2023-06-14T09:18:44;22.90;54.90
31783;DHT22;18351;47.560;9.708;2023-06-14T09:21:11;23.00;54.20
31783;DHT22;18351;47.560;9.708;2023-06-14T09:23:38;22.90;54.30
31783;DHT22;18351;47.560;9.708;2023-06-14T09:26:11;22.90;54.90
31783;DHT22;18351;47.560;9.708;2023-06-14T09:28:41;22.90;54.60
31783;DHT22;18351;47.560;9.708;2023-06-14T09:31:08;23.00;53.40
31783;DHT22;18351;47.560;9.708;2023-06-14T09:33:35;23.10;54.10
31783;DHT22;18351;47.560;9.708;2023-06-14T09:36:01;23.20;52.70
31783;DHT22;18351;47.560;9.708;2023-06-14T09:38:26;23.30;52.90
31783;DHT22;18351;47.560;9.708;2023-06-14T09:40:52;23.30;53.60
31783;DHT22;18351;47.560;9.708;2023-06-14T09:43:17;23.40;52.10
31783;DHT22;18351;47.560;9.708;2023-06-14T09:45:44;23.20;51.30
31783;DHT22;18351;47.560;9.708;2023-06-14T09:48:14;23.40;51.90
31783;DHT22;18351;47.560;9.708;2023-06-14T09:50:45;23.70;52.60
31783;DHT22;18351;47.560;9.708;2023-06-14T09:53:11;23.90;51.30
31783;DHT22;18351;47.560;9.708;2023-06-14T09:55:38;23.80;51.20
31783;DHT22;18351;47.560;9.708;2023-06-14T09:58:06;23.80;50.90
31783;DHT22;18351;47.560;9.708;2023-06-14T10:00:33;23.90;51.20
31783;DHT22;18351;47.560;9.708;2023-06-14T10:03:25;24.00;50.50
31783;DHT22;18351;47.560;9.708;2023-06-14T10:05:53;24.10;50.10
31783;DHT22;18351;47.560;9.708;2023-06-14T10:08:23;24.10;49.50
31783;DHT22;18351;47.560;9.708;2023-06-14T10:10:51;24.20;49.50
31783;DHT22;18351;47.560;9.708;2023-06-14T10:13:18;24.30;49.30
31783;DHT22;18351;47.560;9.708;2023-06-14T10:16:00;24.40;48.30
31783;DHT22;18351;47.560;9.708;2023-06-14T10:18:35;24.60;49.10
31783;DHT22;18351;47.560;9.708;2023-06-14T10:21:37;24.80;49.60
31783;DHT22;18351;47.560;9.708;2023-06-14T10:24:08;24.90;49.50
31783;DHT22;18351;47.560;9.708;2023-06-14T10:26:57;25.00;49.50
31783;DHT22;18351;47.560;9.708;2023-06-14T10:29:23;25.10;49.90
31783;DHT22;18351;47.560;9.708;2023-06-14T10:31:57;25.00;48.20
31783;DHT22;18351;47.560;9.708;2023-06-14T10:34:30;25.20;48.00
31783;DHT22;18351;47.560;9.708;2023-06-14T10:37:15;25.10;48.40
31783;DHT22;18351;47.560;9.708;2023-06-14T10:39:42;25.00;49.10
31783;DHT22;18351;47.560;9.708;2023-06-14T10:42:11;25.20;48.80
31783;DHT22;18351;47.560;9.708;2023-06-14T10:44:50;25.30;49.60
31783;DHT22;18351;47.560;9.708;2023-06-14T10:47:22;25.50;49.50
31783;DHT22;18351;47.560;9.708;2023-06-14T10:49:51;25.70;48.20
31783;DHT22;18351;47.560;9.708;2023-06-14T10:52:21;25.80;49.80
31783;DHT22;18351;47.560;9.708;2023-06-14T10:55:02;26.00;48.60
31783;DHT22;18351;47.560;9.708;2023-06-14T10:57:49;26.10;49.50
31783;DHT22;18351;47.560;9.708;2023-06-14T11:00:24;26.20;48.20
31783;DHT22;18351;47.560;9.708;2023-06-14T11:05:51;26.40;48.60
31783;DHT22;18351;47.560;9.708;2023-06-14T11:10:50;26.50;49.50
31783;DHT22;18351;47.560;9.708;2023-06-14T11:13:16;26.40;48.00
31783;DHT22;18351;47.560;9.708;2023-06-14T11:15:47;26.60;47.40
31783;DHT22;18351;47.560;9.708;2023-06-14T11:18:13;26.80;47.70
31783;DHT22;18351;47.560;9.708;2023-06-14T11:20:40;26.50;48.70
31783;DHT22;18351;47.560;9.708;2023-06-14T11:23:05;26.80;50.30
31783;DHT22;18351;47.560;9.708;2023-06-14T11:25:31;26.90;47.80
31783;DHT22;18351;47.560;9.708;2023-06-14T11:27:57;26.50;42.20
31783;DHT22;18351;47.560;9.708;2023-06-14T11:30:24;26.60;38.40
31783;DHT22;18351;47.560;9.708;2023-06-14T11:32:52;26.50;35.40
31783;DHT22;18351;47.560;9.708;2023-06-14T11:35:19;26.50;36.60
31783;DHT22;18351;47.560;9.708;2023-06-14T11:37:44;26.50;35.10
31783;DHT22;18351;47.560;9.708;2023-06-14T11:40:11;26.50;35.20
31783;DHT22;18351;47.560;9.708;2023-06-14T11:42:39;26.40;35.40
31783;DHT22;18351;47.560;9.708;2023-06-14T11:45:09;26.10;35.80
31783;DHT22;18351;47.560;9.708;2023-06-14T11:47:35;25.90;36.10
31783;DHT22;18351;47.560;9.708;2023-06-14T11:50:02;26.10;36.60
31783;DHT22;18351;47.560;9.708;2023-06-14T11:52:28;26.30;37.30
31783;DHT22;18351;47.560;9.708;2023-06-14T11:54:54;26.50;37.20
31783;DHT22;18351;47.560;9.708;2023-06-14T11:57:20;26.40;36.10
31783;DHT22;18351;47.560;9.708;2023-06-14T11:59:45;26.40;36.10
31783;DHT22;18351;47.560;9.708;2023-06-14T12:02:15;26.50;37.70
31783;DHT22;18351;47.560;9.708;2023-06-14T12:04:42;26.70;36.40
31783;DHT22;18351;47.560;9.708;2023-06-14T12:07:11;26.90;37.50
31783;DHT22;18351;47.560;9.708;2023-06-14T12:12:24;26.70;36.40
31783;DHT22;18351;47.560;9.708;2023-06-14T12:14:51;26.70;36.50
31783;DHT22;18351;47.560;9.708;2023-06-14T12:17:18;26.70;35.70
31783;DHT22;18351;47.560;9.708;2023-06-14T12:19:45;26.60;36.50
31783;DHT22;18351;47.560;9.708;2023-06-14T12:22:12;26.70;36.20
31783;DHT22;18351;47.560;9.708;2023-06-14T12:24:38;27.00;37.50
31783;DHT22;18351;47.560;9.708;2023-06-14T12:27:05;27.00;35.60
31783;DHT22;18351;47.560;9.708;2023-06-14T12:29:31;26.90;35.30
31783;DHT22;18351;47.560;9.708;2023-06-14T12:31:57;26.90;36.50
31783;DHT22;18351;47.560;9.708;2023-06-14T12:34:23;27.00;36.50
31783;DHT22;18351;47.560;9.708;2023-06-14T12:36:53;27.10;35.80
31783;DHT22;18351;47.560;9.708;2023-06-14T12:39:19;27.10;35.30
31783;DHT22;18351;47.560;9.708;2023-06-14T12:41:45;27.20;36.10
31783;DHT22;18351;47.560;9.708;2023-06-14T12:44:14;27.40;35.20
31783;DHT22;18351;47.560;9.708;2023-06-14T12:46:43;27.10;36.50
31783;DHT22;18351;47.560;9.708;2023-06-14T12:49:12;27.10;35.90
31783;DHT22;18351;47.560;9.708;2023-06-14T12:51:39;27.10;36.20
31783;DHT22;18351;47.560;9.708;2023-06-14T12:54:05;26.70;36.90
31783;DHT22;18351;47.560;9.708;2023-06-14T12:56:30;26.60;36.00
31783;DHT22;18351;47.560;9.708;2023-06-14T12:58:56;26.60;35.60
31783;DHT22;18351;47.560;9.708;2023-06-14T13:01:22;26.80;36.90
31783;DHT22;18351;47.560;9.708;2023-06-14T13:03:47;26.90;35.60
31783;DHT22;18351;47.560;9.708;2023-06-14T13:06:13;27.10;35.40
31783;DHT22;18351;47.560;9.708;2023-06-14T13:08:39;27.10;35.30
31783;DHT22;18351;47.560;9.708;2023-06-14T13:11:04;27.30;35.80
31783;DHT22;18351;47.560;9.708;2023-06-14T13:13:30;27.50;35.70
31783;DHT22;18351;47.560;9.708;2023-06-14T13:15:56;27.40;35.90
31783;DHT22;18351;47.560;9.708;2023-06-14T13:18:21;27.10;35.70
31783;DHT22;18351;47.560;9.708;2023-06-14T13:20:47;26.90;35.20
31783;DHT22;18351;47.560;9.708;2023-06-14T13:23:13;26.80;34.50
31783;DHT22;18351;47.560;9.708;2023-06-14T13:25:39;26.70;35.80
31783;DHT22;18351;47.560;9.708;2023-06-14T13:28:05;26.80;36.00
31783;DHT22;18351;47.560;9.708;2023-06-14T13:30:32;26.90;36.20
31783;DHT22;18351;47.560;9.708;2023-06-14T13:32:58;26.90;37.40
31783;DHT22;18351;47.560;9.708;2023-06-14T13:35:24;27.00;36.30
31783;DHT22;18351;47.560;9.708;2023-06-14T13:37:50;27.00;36.00
31783;DHT22;18351;47.560;9.708;2023-06-14T13:40:16;27.00;36.90
31783;DHT22;18351;47.560;9.708;2023-06-14T13:42:41;27.10;36.50
31783;DHT22;18351;47.560;9.708;2023-06-14T13:45:08;27.30;36.30
31783;DHT22;18351;47.560;9.708;2023-06-14T13:47:34;27.20;35.00
31783;DHT22;18351;47.560;9.708;2023-06-14T13:49:59;27.00;34.80
31783;DHT22;18351;47.560;9.708;2023-06-14T13:52:25;27.10;35.50
31783;DHT22;18351;47.560;9.708;2023-06-14T13:54:51;27.20;35.60
31783;DHT22;18351;47.560;9.708;2023-06-14T13:57:17;27.10;35.60
31783;DHT22;18351;47.560;9.708;2023-06-14T13:59:43;27.10;35.40
31783;DHT22;18351;47.560;9.708;2023-06-14T14:02:12;27.00;34.60
31783;DHT22;18351;47.560;9.708;2023-06-14T14:04:39;27.10;35.10
31783;DHT22;18351;47.560;9.708;2023-06-14T14:07:05;27.10;36.30
31783;DHT22;18351;47.560;9.708;2023-06-14T14:09:31;27.20;35.60
31783;DHT22;18351;47.560;9.708;2023-06-14T14:11:58;27.20;35.00
31783;DHT22;18351;47.560;9.708;2023-06-14T14:14:24;27.10;35.40
31783;DHT22;18351;47.560;9.708;2023-06-14T14:16:50;27.10;34.40
31783;DHT22;18351;47.560;9.708;2023-06-14T14:19:23;27.20;35.30
31783;DHT22;18351;47.560;9.708;2023-06-14T14:21:48;27.20;36.50
31783;DHT22;18351;47.560;9.708;2023-06-14T14:24:14;27.20;35.20
31783;DHT22;18351;47.560;9.708;2023-06-14T14:26:40;27.10;34.60
31783;DHT22;18351;47.560;9.708;2023-06-14T14:29:06;27.00;35.70
31783;DHT22;18351;47.560;9.708;2023-06-14T14:31:31;27.00;35.00
31783;DHT22;18351;47.560;9.708;2023-06-14T14:33:57;26.90;35.10
31783;DHT22;18351;47.560;9.708;2023-06-14T14:36:23;26.80;35.80
31783;DHT22;18351;47.560;9.708;2023-06-14T14:38:48;26.80;35.30
31783;DHT22;18351;47.560;9.708;2023-06-14T14:41:14;26.80;35.80
31783;DHT22;18351;47.560;9.708;2023-06-14T14:43:40;26.70;37.20
31783;DHT22;18351;47.560;9.708;2023-06-14T14:46:05;26.90;36.00
31783;DHT22;18351;47.560;9.708;2023-06-14T14:48:31;26.90;35.80
31783;DHT22;18351;47.560;9.708;2023-06-14T14:50:57;26.90;37.00
31783;DHT22;18351;47.560;9.708;2023-06-14T14:53:22;27.00;36.30
31783;DHT22;18351;47.560;9.708;2023-06-14T14:55:49;27.10;37.10
31783;DHT22;18351;47.560;9.708;2023-06-14T14:58:14;26.90;36.10
31783;DHT22;18351;47.560;9.708;2023-06-14T15:00:46;26.80;35.20
31783;DHT22;18351;47.560;9.708;2023-06-14T15:03:11;26.70;34.40
31783;DHT22;18351;47.560;9.708;2023-06-14T15:05:37;26.70;35.10
31783;DHT22;18351;47.560;9.708;2023-06-14T15:08:03;26.60;34.70
31783;DHT22;18351;47.560;9.708;2023-06-14T15:10:29;26.40;34.80
31783;DHT22;18351;47.560;9.708;2023-06-14T15:12:55;26.40;34.50
31783;DHT22;18351;47.560;9.708;2023-06-14T15:15:21;26.40;36.00
31783;DHT22;18351;47.560;9.708;2023-06-14T15:17:47;26.50;34.60
31783;DHT22;18351;47.560;9.708;2023-06-14T15:20:12;26.40;34.20
31783;DHT22;18351;47.560;9.708;2023-06-14T15:22:39;26.50;33.90
31783;DHT22;18351;47.560;9.708;2023-06-14T15:25:05;26.40;35.30
31783;DHT22;18351;47.560;9.708;2023-06-14T15:27:31;26.40;35.90
31783;DHT22;18351;47.560;9.708;2023-06-14T15:29:56;26.40;36.20
31783;DHT22;18351;47.560;9.708;2023-06-14T15:32:22;26.40;35.20
31783;DHT22;18351;47.560;9.708;2023-06-14T15:34:48;26.50;36.20
31783;DHT22;18351;47.560;9.708;2023-06-14T15:37:13;26.60;36.10
31783;DHT22;18351;47.560;9.708;2023-06-14T15:39:39;26.60;36.20
31783;DHT22;18351;47.560;9.708;2023-06-14T15:42:05;26.70;35.70